sensor_id;sensor_type;location;lat;lon;timestamp;temperature;humidity
51327;DHT22;37412;52.836;6.362;2023-09-08T00:01:30;20.20;99.90
51327;DHT22;37412;52.836;6.362;2023-09-08T00:04:16;20.10;99.90
51327;DHT22;37412;52.836;6.362;2023-09-08T00:07:02;20.20;99.90
51327;DHT22;37412;52.836;6.362;2023-09-08T00:09:49;20.10;99.90
51327;DHT22;37412;52.836;6.362;2023-09-08T00:12:35;20.10;99.90
51327;DHT22;37412;52.836;6.362;2023-09-08T00:15:21;20.10;99.90
51327;DHT22;37412;52.836;6.362;2023-09-08T00:18:07;20.10;99.90
51327;DHT22;37412;52.836;6.362;2023-09-08T00:20:53;20.10;99.90
51327;DHT22;37412;52.836;6.362;2023-09-08T00:23:39;20.10;99.90
51327;DHT22;37412;52.836;6.362;2023-09-08T00:26:25;20.10;99.90
51327;DHT22;37412;52.836;6.362;2023-09-08T00:29:11;20.00;99.90
51327;DHT22;37412;52.836;6.362;2023-09-08T00:31:56;20.00;99.90
51327;DHT22;37412;52.836;6.362;2023-09-08T00:34:42;19.90;99.90
51327;DHT22;37412;52.836;6.362;2023-09-08T00:37:28;19.90;99.90
51327;DHT22;37412;52.836;6.362;2023-09-08T00:40:16;19.80;99.90
51327;DHT22;37412;52.836;6.362;2023-09-08T00:43:02;19.70;99.90
51327;DHT22;37412;52.836;6.362;2023-09-08T00:45:48;19.60;99.90
51327;DHT22;37412;52.836;6.362;2023-09-08T00:48:34;19.60;99.90
51327;DHT22;37412;52.836;6.362;2023-09-08T00:51:21;19.50;99.90
51327;DHT22;37412;52.836;6.362;2023-09-08T00:54:08;19.50;99.90
51327;DHT22;37412;52.836;6.362;2023-09-08T00:56:56;19.40;99.90
51327;DHT22;37412;52.836;6.362;2023-09-08T00:59:43;19.30;99.90
51327;DHT22;37412;52.836;6.362;2023-09-08T01:02:32;19.40;99.90
51327;DHT22;37412;52.836;6.362;2023-09-08T01:05:19;19.20;99.90
51327;DHT22;37412;52.836;6.362;2023-09-08T01:08:06;19.20;99.90
51327;DHT22;37412;52.836;6.362;2023-09-08T01:10:53;19.10;99.90
51327;DHT22;37412;52.836;6.362;2023-09-08T01:13:39;19.10;99.90
51327;DHT22;37412;52.836;6.362;2023-09-08T01:16:25;19.00;99.90
51327;DHT22;37412;52.836;6.362;2023-09-08T01:19:13;19.00;99.90
51327;DHT22;37412;52.836;6.362;2023-09-08T01:22:09;18.90;99.90
51327;DHT22;37412;52.836;6.362;2023-09-08T01:25:10;18.80;99.90
51327;DHT22;37412;52.836;6.362;2023-09-08T01:28:00;18.80;99.90
51327;DHT22;37412;52.836;6.362;2023-09-08T01:30:47;18.70;99.90
51327;DHT22;37412;52.836;6.362;2023-09-08T01:33:34;18.60;99.90
51327;DHT22;37412;52.836;6.362;2023-09-08T01:36:20;18.60;99.90
51327;DHT22;37412;52.836;6.362;2023-09-08T01:39:06;18.50;99.90
51327;DHT22;37412;52.836;6.362;2023-09-08T01:41:52;18.40;99.90
51327;DHT22;37412;52.836;6.362;2023-09-08T01:44:38;18.30;99.90
51327;DHT22;37412;52.836;6.362;2023-09-08T01:47:24;18.20;99.90
51327;DHT22;37412;52.836;6.362;2023-09-08T01:50:10;18.20;99.90
51327;DHT22;37412;52.836;6.362;2023-09-08T01:52:55;18.10;99.90
51327;DHT22;37412;52.836;6.362;2023-09-08T01:55:42;18.20;99.90
51327;DHT22;37412;52.836;6.362;2023-09-08T01:58:27;18.10;99.90
51327;DHT22;37412;52.836;6.362;2023-09-08T02:01:13;18.00;99.90
51327;DHT22;37412;52.836;6.362;2023-09-08T02:03:59;18.00;99.90
51327;DHT22;37412;52.836;6.362;2023-09-08T02:06:45;18.00;99.90
51327;DHT22;37412;52.836;6.362;2023-09-08T02:09:32;18.00;99.90
51327;DHT22;37412;52.836;6.362;2023-09-08T02:12:18;17.90;99.90
51327;DHT22;37412;52.836;6.362;2023-09-08T02:15:05;17.90;99.90
51327;DHT22;37412;52.836;6.362;2023-09-08T02:17:53;17.80;99.90
51327;DHT22;37412;52.836;6.362;2023-09-08T02:20:40;17.80;99.90
51327;DHT22;37412;52.836;6.362;2023-09-08T02:23:26;17.80;99.90
51327;DHT22;37412;52.836;6.362;2023-09-08T02:26:12;17.80;99.90
51327;DHT22;37412;52.836;6.362;2023-09-08T02:28:58;17.80;99.90
51327;DHT22;37412;52.836;6.362;2023-09-08T02:31:44;17.80;99.90
51327;DHT22;37412;52.836;6.362;2023-09-08T02:34:33;17.80;99.90
51327;DHT22;37412;52.836;6.362;2023-09-08T02:37:19;17.70;99.90
51327;DHT22;37412;52.836;6.362;2023-09-08T02:40:07;17.70;99.90
51327;DHT22;37412;52.836;6.362;2023-09-08T02:42:53;17.70;99.90
51327;DHT22;37412;52.836;6.362;2023-09-08T02:45:39;17.60;99.90
51327;DHT22;37412;52.836;6.362;2023-09-08T02:48:25;17.60;99.90
51327;DHT22;37412;52.836;6.362;2023-09-08T02:51:11;17.50;99.90
51327;DHT22;37412;52.836;6.362;2023-09-08T02:53:57;17.50;99.90
51327;DHT22;37412;52.836;6.362;2023-09-08T02:56:43;17.50;99.90
51327;DHT22;37412;52.836;6.362;2023-09-08T02:59:29;17.40;99.90
51327;DHT22;37412;52.836;6.362;2023-09-08T03:02:15;17.40;99.90
51327;DHT22;37412;52.836;6.362;2023-09-08T03:05:01;17.40;99.90
51327;DHT22;37412;52.836;6.362;2023-09-08T03:07:48;17.30;99.90
51327;DHT22;37412;52.836;6.362;2023-09-08T03:10:34;17.30;99.90
51327;DHT22;37412;52.836;6.362;2023-09-08T03:13:21;17.30;99.90
51327;DHT22;37412;52.836;6.362;2023-09-08T03:16:08;17.30;99.90
51327;DHT22;37412;52.836;6.362;2023-09-08T03:18:54;17.20;99.90
51327;DHT22;37412;52.836;6.362;2023-09-08T03:21:40;17.20;99.90
51327;DHT22;37412;52.836;6.362;2023-09-08T03:24:26;17.20;99.90
51327;DHT22;37412;52.836;6.362;2023-09-08T03:27:11;17.10;99.90
51327;DHT22;37412;52.836;6.362;2023-09-08T03:29:57;17.10;99.90
51327;DHT22;37412;52.836;6.362;2023-09-08T03:32:43;17.00;99.90
51327;DHT22;37412;52.836;6.362;2023-09-08T03:35:29;17.00;99.90
51327;DHT22;37412;52.836;6.362;2023-09-08T03:38:15;17.00;99.90
51327;DHT22;37412;52.836;6.362;2023-09-08T03:41:01;17.00;99.90
51327;DHT22;37412;52.836;6.362;2023-09-08T03:43:47;16.90;99.90
51327;DHT22;37412;52.836;6.362;2023-09-08T03:46:36;16.90;99.90
51327;DHT22;37412;52.836;6.362;2023-09-08T03:49:22;16.90;99.90
51327;DHT22;37412;52.836;6.362;2023-09-08T03:52:08;16.80;99.90
51327;DHT22;37412;52.836;6.362;2023-09-08T03:54:54;16.80;99.90
51327;DHT22;37412;52.836;6.362;2023-09-08T03:57:40;16.80;99.90
51327;DHT22;37412;52.836;6.362;2023-09-08T04:00:25;16.80;99.90
51327;DHT22;37412;52.836;6.362;2023-09-08T04:03:11;16.70;99.90
51327;DHT22;37412;52.836;6.362;2023-09-08T04:05:57;16.80;99.90
51327;DHT22;37412;52.836;6.362;2023-09-08T04:08:43;16.80;99.90
51327;DHT22;37412;52.836;6.362;2023-09-08T04:11:29;16.80;99.90
51327;DHT22;37412;52.836;6.362;2023-09-08T04:14:15;16.70;99.90
51327;DHT22;37412;52.836;6.362;2023-09-08T04:17:01;16.80;99.90
51327;DHT22;37412;52.836;6.362;2023-09-08T04:19:47;16.70;99.90
51327;DHT22;37412;52.836;6.362;2023-09-08T04:22:33;16.70;99.90
51327;DHT22;37412;52.836;6.362;2023-09-08T04:25:19;16.70;99.90
51327;DHT22;37412;52.836;6.362;2023-09-08T04:28:05;16.70;99.90
51327;DHT22;37412;52.836;6.362;2023-09-08T04:30:51;16.70;99.90
51327;DHT22;37412;52.836;6.362;2023-09-08T04:33:38;16.80;99.90
51327;DHT22;37412;52.836;6.362;2023-09-08T04:36:24;16.80;99.90
51327;DHT22;37412;52.836;6.362;2023-09-08T04:39:10;16.80;99.90
51327;DHT22;37412;52.836;6.362;2023-09-08T04:41:57;16.90;99.90
51327;DHT22;37412;52.836;6.362;2023-09-08T04:44:43;17.10;99.90
51327;DHT22;37412;52.836;6.362;2023-09-08T04:47:29;17.00;99.90
51327;DHT22;37412;52.836;6.362;2023-09-08T04:50:15;17.00;99.90
51327;DHT22;37412;52.836;6.362;2023-09-08T04:53:01;17.00;99.90
51327;DHT22;37412;52.836;6.362;2023-09-08T04:55:46;17.00;99.90
51327;DHT22;37412;52.836;6.362;2023-09-08T04:58:32;17.10;99.90
51327;DHT22;37412;52.836;6.362;2023-09-08T05:01:18;17.10;99.90
51327;DHT22;37412;52.836;6.362;2023-09-08T05:04:04;17.10;99.90
51327;DHT22;37412;52.836;6.362;2023-09-08T05:06:50;17.20;99.90
51327;DHT22;37412;52.836;6.362;2023-09-08T05:09:36;17.30;99.90
51327;DHT22;37412;52.836;6.362;2023-09-08T05:12:22;17.30;99.90
51327;DHT22;37412;52.836;6.362;2023-09-08T05:15:08;17.40;99.90
51327;DHT22;37412;52.836;6.362;2023-09-08T05:18:00;17.40;99.90
51327;DHT22;37412;52.836;6.362;2023-09-08T05:20:47;17.40;99.90
51327;DHT22;37412;52.836;6.362;2023-09-08T05:23:34;17.50;99.90
51327;DHT22;37412;52.836;6.362;2023-09-08T05:26:19;17.40;99.90
51327;DHT22;37412;52.836;6.362;2023-09-08T05:29:05;17.50;99.90
51327;DHT22;37412;52.836;6.362;2023-09-08T05:31:51;17.40;99.90
51327;DHT22;37412;52.836;6.362;2023-09-08T05:34:37;17.40;99.90
51327;DHT22;37412;52.836;6.362;2023-09-08T05:37:23;17.40;99.90
51327;DHT22;37412;52.836;6.362;2023-09-08T05:40:09;17.40;99.90
51327;DHT22;37412;52.836;6.362;2023-09-08T05:42:55;17.30;99.90
51327;DHT22;37412;52.836;6.362;2023-09-08T05:45:41;17.30;99.90
51327;DHT22;37412;52.836;6.362;2023-09-08T05:48:27;17.30;99.90
51327;DHT22;37412;52.836;6.362;2023-09-08T05:51:13;17.30;99.90
51327;DHT22;37412;52.836;6.362;2023-09-08T05:54:00;17.30;99.90
51327;DHT22;37412;52.836;6.362;2023-09-08T05:56:46;17.40;99.90
51327;DHT22;37412;52.836;6.362;2023-09-08T05:59:32;17.40;99.90
51327;DHT22;37412;52.836;6.362;2023-09-08T06:02:18;17.50;99.90
51327;DHT22;37412;52.836;6.362;2023-09-08T06:05:04;17.50;99.90
51327;DHT22;37412;52.836;6.362;2023-09-08T06:07:50;17.50;99.90
51327;DHT22;37412;52.836;6.362;2023-09-08T06:10:36;17.60;99.90
51327;DHT22;37412;52.836;6.362;2023-09-08T06:13:22;17.60;99.90
51327;DHT22;37412;52.836;6.362;2023-09-08T06:16:08;17.50;99.90
51327;DHT22;37412;52.836;6.362;2023-09-08T06:18:54;17.60;99.90
51327;DHT22;37412;52.836;6.362;2023-09-08T06:21:40;17.60;99.90
51327;DHT22;37412;52.836;6.362;2023-09-08T06:24:26;17.60;99.90
51327;DHT22;37412;52.836;6.362;2023-09-08T06:27:14;17.60;99.90
51327;DHT22;37412;52.836;6.362;2023-09-08T06:30:00;17.70;99.90
51327;DHT22;37412;52.836;6.362;2023-09-08T06:32:46;17.70;99.90
51327;DHT22;37412;52.836;6.362;2023-09-08T06:35:32;17.80;99.90
51327;DHT22;37412;52.836;6.362;2023-09-08T06:38:19;17.80;99.90
51327;DHT22;37412;52.836;6.362;2023-09-08T06:41:09;17.80;99.90
51327;DHT22;37412;52.836;6.362;2023-09-08T06:43:56;17.90;99.90
51327;DHT22;37412;52.836;6.362;2023-09-08T06:46:42;17.90;99.90
51327;DHT22;37412;52.836;6.362;2023-09-08T06:49:28;17.90;99.90
51327;DHT22;37412;52.836;6.362;2023-09-08T06:52:14;17.90;99.90
51327;DHT22;37412;52.836;6.362;2023-09-08T06:55:00;18.10;99.90
51327;DHT22;37412;52.836;6.362;2023-09-08T06:57:46;18.10;99.90
51327;DHT22;37412;52.836;6.362;2023-09-08T07:00:32;18.20;99.90
51327;DHT22;37412;52.836;6.362;2023-09-08T07:03:18;18.30;99.90
51327;DHT22;37412;52.836;6.362;2023-09-08T07:06:04;18.40;99.90
51327;DHT22;37412;52.836;6.362;2023-09-08T07:08:50;18.50;99.90
51327;DHT22;37412;52.836;6.362;2023-09-08T07:11:35;18.60;99.90
51327;DHT22;37412;52.836;6.362;2023-09-08T07:14:21;18.70;99.90
51327;DHT22;37412;52.836;6.362;2023-09-08T07:17:07;18.80;99.90
51327;DHT22;37412;52.836;6.362;2023-09-08T07:19:53;18.90;99.90
51327;DHT22;37412;52.836;6.362;2023-09-08T07:22:39;19.00;99.90
51327;DHT22;37412;52.836;6.362;2023-09-08T07:25:25;19.00;99.90
51327;DHT22;37412;52.836;6.362;2023-09-08T07:28:11;19.10;99.90
51327;DHT22;37412;52.836;6.362;2023-09-08T07:31:04;19.30;99.90
51327;DHT22;37412;52.836;6.362;2023-09-08T07:33:50;19.40;99.90
51327;DHT22;37412;52.836;6.362;2023-09-08T07:36:36;19.60;99.90
51327;DHT22;37412;52.836;6.362;2023-09-08T07:39:23;19.80;99.90
51327;DHT22;37412;52.836;6.362;2023-09-08T07:42:08;20.90;99.90
51327;DHT22;37412;52.836;6.362;2023-09-08T07:44:54;22.90;99.90
51327;DHT22;37412;52.836;6.362;2023-09-08T07:47:40;24.80;99.90
51327;DHT22;37412;52.836;6.362;2023-09-08T07:50:28;26.20;99.90
51327;DHT22;37412;52.836;6.362;2023-09-08T07:53:14;27.40;99.90
51327;DHT22;37412;52.836;6.362;2023-09-08T07:56:00;28.30;99.90
51327;DHT22;37412;52.836;6.362;2023-09-08T07:58:47;29.00;99.90
51327;DHT22;37412;52.836;6.362;2023-09-08T08:01:33;29.20;99.90
51327;DHT22;37412;52.836;6.362;2023-09-08T08:04:19;29.40;99.90
51327;DHT22;37412;52.836;6.362;2023-09-08T08:07:04;29.30;99.90
51327;DHT22;37412;52.836;6.362;2023-09-08T08:09:51;29.40;99.90
51327;DHT22;37412;52.836;6.362;2023-09-08T08:12:37;29.60;99.90
51327;DHT22;37412;52.836;6.362;2023-09-08T08:15:37;29.90;99.90
51327;DHT22;37412;52.836;6.362;2023-09-08T08:18:23;30.00;99.90
51327;DHT22;37412;52.836;6.362;2023-09-08T08:21:09;30.10;98.70
51327;DHT22;37412;52.836;6.362;2023-09-08T08:23:55;30.40;98.80
51327;DHT22;37412;52.836;6.362;2023-09-08T08:26:41;31.00;98.50
51327;DHT22;37412;52.836;6.362;2023-09-08T08:29:27;31.50;97.30
51327;DHT22;37412;52.836;6.362;2023-09-08T08:32:13;32.10;96.40
51327;DHT22;37412;52.836;6.362;2023-09-08T08:34:59;32.60;95.40
51327;DHT22;37412;52.836;6.362;2023-09-08T08:37:45;32.90;94.60
51327;DHT22;37412;52.836;6.362;2023-09-08T08:40:31;33.30;93.90
51327;DHT22;37412;52.836;6.362;2023-09-08T08:43:21;33.70;92.90
51327;DHT22;37412;52.836;6.362;2023-09-08T08:46:07;34.00;92.20
51327;DHT22;37412;52.836;6.362;2023-09-08T08:48:53;34.40;91.80
51327;DHT22;37412;52.836;6.362;2023-09-08T08:51:44;34.50;91.30
51327;DHT22;37412;52.836;6.362;2023-09-08T08:54:30;34.70;90.00
51327;DHT22;37412;52.836;6.362;2023-09-08T08:57:16;34.70;88.70
51327;DHT22;37412;52.836;6.362;2023-09-08T09:00:02;34.70;86.80
51327;DHT22;37412;52.836;6.362;2023-09-08T09:02:53;34.90;85.00
51327;DHT22;37412;52.836;6.362;2023-09-08T09:05:40;35.00;85.70
51327;DHT22;37412;52.836;6.362;2023-09-08T09:08:27;35.20;85.20
51327;DHT22;37412;52.836;6.362;2023-09-08T09:11:13;35.40;85.00
51327;DHT22;37412;52.836;6.362;2023-09-08T09:13:59;35.40;84.60
51327;DHT22;37412;52.836;6.362;2023-09-08T09:16:46;35.30;85.00
51327;DHT22;37412;52.836;6.362;2023-09-08T09:19:33;35.10;84.60
51327;DHT22;37412;52.836;6.362;2023-09-08T09:22:21;34.30;82.70
51327;DHT22;37412;52.836;6.362;2023-09-08T09:25:09;33.50;83.20
51327;DHT22;37412;52.836;6.362;2023-09-08T09:28:01;32.60;84.20
51327;DHT22;37412;52.836;6.362;2023-09-08T09:30:52;31.50;86.00
51327;DHT22;37412;52.836;6.362;2023-09-08T09:33:40;30.70;87.30
51327;DHT22;37412;52.836;6.362;2023-09-08T09:36:26;30.10;88.20
51327;DHT22;37412;52.836;6.362;2023-09-08T09:39:12;29.40;88.20
51327;DHT22;37412;52.836;6.362;2023-09-08T09:41:58;29.00;89.40
51327;DHT22;37412;52.836;6.362;2023-09-08T09:44:47;28.60;90.40
51327;DHT22;37412;52.836;6.362;2023-09-08T09:47:33;28.20;90.70
51327;DHT22;37412;52.836;6.362;2023-09-08T09:50:33;27.90;91.00
51327;DHT22;37412;52.836;6.362;2023-09-08T09:53:20;27.60;91.70
51327;DHT22;37412;52.836;6.362;2023-09-08T09:56:06;27.50;91.80
51327;DHT22;37412;52.836;6.362;2023-09-08T09:58:53;27.50;92.20
51327;DHT22;37412;52.836;6.362;2023-09-08T10:01:40;27.40;92.30
51327;DHT22;37412;52.836;6.362;2023-09-08T10:04:28;27.40;92.30
51327;DHT22;37412;52.836;6.362;2023-09-08T10:07:14;27.30;92.50
51327;DHT22;37412;52.836;6.362;2023-09-08T10:10:01;27.20;92.50
51327;DHT22;37412;52.836;6.362;2023-09-08T10:12:55;27.10;92.70
51327;DHT22;37412;52.836;6.362;2023-09-08T10:15:42;27.00;92.60
51327;DHT22;37412;52.836;6.362;2023-09-08T10:18:29;27.00;93.30
51327;DHT22;37412;52.836;6.362;2023-09-08T10:21:16;26.90;93.00
51327;DHT22;37412;52.836;6.362;2023-09-08T10:27:04;26.90;93.50
51327;DHT22;37412;52.836;6.362;2023-09-08T10:29:53;26.90;93.30
51327;DHT22;37412;52.836;6.362;2023-09-08T10:32:40;27.10;93.60
51327;DHT22;37412;52.836;6.362;2023-09-08T10:35:28;27.10;93.90
51327;DHT22;37412;52.836;6.362;2023-09-08T10:38:25;27.30;94.00
51327;DHT22;37412;52.836;6.362;2023-09-08T10:44:06;27.50;94.00
51327;DHT22;37412;52.836;6.362;2023-09-08T10:46:53;27.60;93.70
51327;DHT22;37412;52.836;6.362;2023-09-08T10:49:40;27.50;93.50
51327;DHT22;37412;52.836;6.362;2023-09-08T10:52:26;27.40;93.60
51327;DHT22;37412;52.836;6.362;2023-09-08T10:55:12;27.30;93.30
51327;DHT22;37412;52.836;6.362;2023-09-08T10:57:58;27.30;93.40
51327;DHT22;37412;52.836;6.362;2023-09-08T11:00:51;27.20;92.70
51327;DHT22;37412;52.836;6.362;2023-09-08T11:06:26;27.20;93.50
51327;DHT22;37412;52.836;6.362;2023-09-08T11:09:16;27.20;92.90
51327;DHT22;37412;52.836;6.362;2023-09-08T11:12:01;27.30;93.40
51327;DHT22;37412;52.836;6.362;2023-09-08T11:14:49;27.20;93.10
51327;DHT22;37412;52.836;6.362;2023-09-08T11:17:36;27.30;93.90
51327;DHT22;37412;52.836;6.362;2023-09-08T11:20:28;27.30;93.50
51327;DHT22;37412;52.836;6.362;2023-09-08T11:23:14;27.30;93.40
51327;DHT22;37412;52.836;6.362;2023-09-08T11:26:00;27.40;93.80
51327;DHT22;37412;52.836;6.362;2023-09-08T11:28:48;27.40;93.30
51327;DHT22;37412;52.836;6.362;2023-09-08T11:31:35;27.40;93.00
51327;DHT22;37412;52.836;6.362;2023-09-08T11:34:21;27.50;93.50
51327;DHT22;37412;52.836;6.362;2023-09-08T11:37:11;27.50;93.80
51327;DHT22;37412;52.836;6.362;2023-09-08T11:39:58;27.50;93.60
51327;DHT22;37412;52.836;6.362;2023-09-08T11:42:44;27.60;93.60
51327;DHT22;37412;52.836;6.362;2023-09-08T11:45:33;27.70;93.30
51327;DHT22;37412;52.836;6.362;2023-09-08T11:48:19;27.80;93.30
51327;DHT22;37412;52.836;6.362;2023-09-08T11:51:06;27.90;93.40
51327;DHT22;37412;52.836;6.362;2023-09-08T11:53:52;27.90;93.70
51327;DHT22;37412;52.836;6.362;2023-09-08T11:56:38;28.00;93.30
51327;DHT22;37412;52.836;6.362;2023-09-08T11:59:24;28.10;93.70
51327;DHT22;37412;52.836;6.362;2023-09-08T12:02:10;28.10;92.40
51327;DHT22;37412;52.836;6.362;2023-09-08T12:04:57;28.20;92.60
51327;DHT22;37412;52.836;6.362;2023-09-08T12:07:43;28.40;92.80
51327;DHT22;37412;52.836;6.362;2023-09-08T12:10:29;28.50;92.30
51327;DHT22;37412;52.836;6.362;2023-09-08T12:13:20;28.50;91.80
51327;DHT22;37412;52.836;6.362;2023-09-08T12:16:19;28.70;91.20
51327;DHT22;37412;52.836;6.362;2023-09-08T12:19:05;28.90;91.70
51327;DHT22;37412;52.836;6.362;2023-09-08T12:21:54;29.10;92.50
51327;DHT22;37412;52.836;6.362;2023-09-08T12:24:47;29.10;91.60
51327;DHT22;37412;52.836;6.362;2023-09-08T12:27:35;29.20;91.00
51327;DHT22;37412;52.836;6.362;2023-09-08T12:30:22;29.30;91.70
51327;DHT22;37412;52.836;6.362;2023-09-08T12:33:15;29.30;91.30
51327;DHT22;37412;52.836;6.362;2023-09-08T12:36:09;29.40;90.60
51327;DHT22;37412;52.836;6.362;2023-09-08T12:38:58;29.50;91.20
51327;DHT22;37412;52.836;6.362;2023-09-08T12:41:44;29.60;91.10
51327;DHT22;37412;52.836;6.362;2023-09-08T12:44:30;29.70;90.70
51327;DHT22;37412;52.836;6.362;2023-09-08T12:47:16;29.70;90.80
51327;DHT22;37412;52.836;6.362;2023-09-08T12:50:02;29.80;90.60
51327;DHT22;37412;52.836;6.362;2023-09-08T12:52:48;29.90;90.60
51327;DHT22;37412;52.836;6.362;2023-09-08T12:55:34;30.00;90.50
51327;DHT22;37412;52.836;6.362;2023-09-08T12:58:20;30.00;90.20
51327;DHT22;37412;52.836;6.362;2023-09-08T13:01:06;30.10;90.80
51327;DHT22;37412;52.836;6.362;2023-09-08T13:03:52;30.10;90.40
51327;DHT22;37412;52.836;6.362;2023-09-08T13:06:38;30.20;89.80
51327;DHT22;37412;52.836;6.362;2023-09-08T13:09:24;30.30;89.40
51327;DHT22;37412;52.836;6.362;2023-09-08T13:12:10;30.40;89.50
51327;DHT22;37412;52.836;6.362;2023-09-08T13:14:58;30.60;89.70
51327;DHT22;37412;52.836;6.362;2023-09-08T13:17:44;30.70;89.20
51327;DHT22;37412;52.836;6.362;2023-09-08T13:20:30;30.80;89.90
51327;DHT22;37412;52.836;6.362;2023-09-08T13:23:16;30.90;88.80
51327;DHT22;37412;52.836;6.362;2023-09-08T13:26:01;31.00;89.80
51327;DHT22;37412;52.836;6.362;2023-09-08T13:28:47;31.00;89.50
51327;DHT22;37412;52.836;6.362;2023-09-08T13:31:33;31.20;90.10
51327;DHT22;37412;52.836;6.362;2023-09-08T13:34:19;31.30;88.70
51327;DHT22;37412;52.836;6.362;2023-09-08T13:37:05;31.30;89.40
51327;DHT22;37412;52.836;6.362;2023-09-08T13:39:51;31.40;87.60
51327;DHT22;37412;52.836;6.362;2023-09-08T13:42:37;31.50;88.70
51327;DHT22;37412;52.836;6.362;2023-09-08T13:45:23;31.60;88.10
51327;DHT22;37412;52.836;6.362;2023-09-08T13:48:09;31.70;87.60
51327;DHT22;37412;52.836;6.362;2023-09-08T13:50:54;31.70;87.80
51327;DHT22;37412;52.836;6.362;2023-09-08T13:53:41;31.70;88.30
51327;DHT22;37412;52.836;6.362;2023-09-08T13:56:27;31.70;86.40
51327;DHT22;37412;52.836;6.362;2023-09-08T13:59:13;31.70;86.30
51327;DHT22;37412;52.836;6.362;2023-09-08T14:01:59;31.70;88.60
51327;DHT22;37412;52.836;6.362;2023-09-08T14:04:45;31.80;88.60
51327;DHT22;37412;52.836;6.362;2023-09-08T14:07:31;31.80;89.50
51327;DHT22;37412;52.836;6.362;2023-09-08T14:10:17;31.90;90.00
51327;DHT22;37412;52.836;6.362;2023-09-08T14:13:03;31.90;89.10
51327;DHT22;37412;52.836;6.362;2023-09-08T14:15:49;31.90;87.70
51327;DHT22;37412;52.836;6.362;2023-09-08T14:18:34;31.90;89.10
51327;DHT22;37412;52.836;6.362;2023-09-08T14:21:20;31.90;88.70
51327;DHT22;37412;52.836;6.362;2023-09-08T14:24:06;31.90;88.70
51327;DHT22;37412;52.836;6.362;2023-09-08T14:26:52;31.90;89.60
51327;DHT22;37412;52.836;6.362;2023-09-08T14:29:38;31.90;88.00
51327;DHT22;37412;52.836;6.362;2023-09-08T14:32:24;31.80;85.60
51327;DHT22;37412;52.836;6.362;2023-09-08T14:35:10;31.80;86.30
51327;DHT22;37412;52.836;6.362;2023-09-08T14:37:56;31.70;86.00
51327;DHT22;37412;52.836;6.362;2023-09-08T14:40:41;31.60;86.20
51327;DHT22;37412;52.836;6.362;2023-09-08T14:43:28;31.60;86.00
51327;DHT22;37412;52.836;6.362;2023-09-08T14:46:14;31.60;86.90
51327;DHT22;37412;52.836;6.362;2023-09-08T14:49:00;31.60;86.70
51327;DHT22;37412;52.836;6.362;2023-09-08T14:51:45;31.50;87.00
51327;DHT22;37412;52.836;6.362;2023-09-08T14:54:31;31.60;87.90
51327;DHT22;37412;52.836;6.362;2023-09-08T14:57:17;31.60;86.30
51327;DHT22;37412;52.836;6.362;2023-09-08T15:00:03;31.50;87.20
51327;DHT22;37412;52.836;6.362;2023-09-08T15:02:50;31.50;87.20
51327;DHT22;37412;52.836;6.362;2023-09-08T15:05:36;31.50;86.90
51327;DHT22;37412;52.836;6.362;2023-09-08T15:08:21;31.50;87.00
51327;DHT22;37412;52.836;6.362;2023-09-08T15:11:08;31.40;86.80
51327;DHT22;37412;52.836;6.362;2023-09-08T15:13:54;31.30;87.60
51327;DHT22;37412;52.836;6.362;2023-09-08T15:16:40;31.20;87.00
51327;DHT22;37412;52.836;6.362;2023-09-08T15:19:26;31.10;87.10
51327;DHT22;37412;52.836;6.362;2023-09-08T15:22:12;30.90;87.10
51327;DHT22;37412;52.836;6.362;2023-09-08T15:24:58;30.80;87.70
51327;DHT22;37412;52.836;6.362;2023-09-08T15:27:44;30.60;87.40
51327;DHT22;37412;52.836;6.362;2023-09-08T15:30:30;30.50;87.60
51327;DHT22;37412;52.836;6.362;2023-09-08T15:33:16;30.40;87.80
51327;DHT22;37412;52.836;6.362;2023-09-08T15:36:02;30.30;87.60
51327;DHT22;37412;52.836;6.362;2023-09-08T15:38:48;30.20;87.70
51327;DHT22;37412;52.836;6.362;2023-09-08T15:41:35;30.10;87.50
51327;DHT22;37412;52.836;6.362;2023-09-08T15:44:21;30.00;88.00
51327;DHT22;37412;52.836;6.362;2023-09-08T15:47:07;29.90;87.20
51327;DHT22;37412;52.836;6.362;2023-09-08T15:49:53;29.80;88.30
51327;DHT22;37412;52.836;6.362;2023-09-08T15:52:38;29.70;89.30
51327;DHT22;37412;52.836;6.362;2023-09-08T15:55:24;29.70;90.10
51327;DHT22;37412;52.836;6.362;2023-09-08T15:58:10;29.60;89.50
51327;DHT22;37412;52.836;6.362;2023-09-08T16:00:56;29.50;88.80
51327;DHT22;37412;52.836;6.362;2023-09-08T16:03:42;29.50;89.70
51327;DHT22;37412;52.836;6.362;2023-09-08T16:06:28;29.40;90.00
51327;DHT22;37412;52.836;6.362;2023-09-08T16:09:14;29.40;90.10
51327;DHT22;37412;52.836;6.362;2023-09-08T16:12:00;29.30;90.30
51327;DHT22;37412;52.836;6.362;2023-09-08T16:14:46;29.20;90.10
51327;DHT22;37412;52.836;6.362;2023-09-08T16:17:31;29.20;90.30
51327;DHT22;37412;52.836;6.362;2023-09-08T16:20:17;29.20;90.50
51327;DHT22;37412;52.836;6.362;2023-09-08T16:23:04;29.10;90.30
51327;DHT22;37412;52.836;6.362;2023-09-08T16:25:50;29.00;90.50
51327;DHT22;37412;52.836;6.362;2023-09-08T16:28:36;28.90;90.90
51327;DHT22;37412;52.836;6.362;2023-09-08T16:31:22;28.90;91.30
51327;DHT22;37412;52.836;6.362;2023-09-08T16:34:08;28.80;91.30
51327;DHT22;37412;52.836;6.362;2023-09-08T16:36:54;28.70;91.40
51327;DHT22;37412;52.836;6.362;2023-09-08T16:39:40;28.70;91.60
51327;DHT22;37412;52.836;6.362;2023-09-08T16:42:25;28.60;91.50
51327;DHT22;37412;52.836;6.362;2023-09-08T16:45:11;28.60;91.80
51327;DHT22;37412;52.836;6.362;2023-09-08T16:47:57;28.50;91.70
51327;DHT22;37412;52.836;6.362;2023-09-08T16:50:43;28.50;91.70
51327;DHT22;37412;52.836;6.362;2023-09-08T16:53:29;28.50;91.70
51327;DHT22;37412;52.836;6.362;2023-09-08T16:56:15;28.40;91.90
51327;DHT22;37412;52.836;6.362;2023-09-08T16:59:01;28.40;92.00
51327;DHT22;37412;52.836;6.362;2023-09-08T17:01:47;28.30;91.80
51327;DHT22;37412;52.836;6.362;2023-09-08T17:04:32;28.20;92.20
51327;DHT22;37412;52.836;6.362;2023-09-08T17:07:18;28.20;92.50
51327;DHT22;37412;52.836;6.362;2023-09-08T17:10:04;28.10;92.80
51327;DHT22;37412;52.836;6.362;2023-09-08T17:12:50;28.00;93.10
51327;DHT22;37412;52.836;6.362;2023-09-08T17:15:36;28.00;93.80
51327;DHT22;37412;52.836;6.362;2023-09-08T17:18:22;27.90;94.20
51327;DHT22;37412;52.836;6.362;2023-09-08T17:21:10;27.80;94.70
51327;DHT22;37412;52.836;6.362;2023-09-08T17:23:56;27.70;94.40
51327;DHT22;37412;52.836;6.362;2023-09-08T17:26:42;27.60;94.50
51327;DHT22;37412;52.836;6.362;2023-09-08T17:29:27;27.50;94.80
51327;DHT22;37412;52.836;6.362;2023-09-08T17:32:15;27.40;95.20
51327;DHT22;37412;52.836;6.362;2023-09-08T17:35:01;27.30;95.40
51327;DHT22;37412;52.836;6.362;2023-09-08T17:37:47;27.20;94.80
51327;DHT22;37412;52.836;6.362;2023-09-08T17:40:32;27.20;95.60